Time;durP1;ratioP1;P1;durP2;ratioP2;P2;SDS_P1;SDS_P2;PMS_P1;PMS_P2;Temp;Humidity;BMP_temperature;BMP_pressure;BME280_temperature;BME280_humidity;BME280_pressure;Samples;Min_cycle;Max_cycle;Signal;HPM_P1;HPM_P2
2021/12/18 00:01:22;;;;;;;21.02;0.98;;;9.20;99.90;;;;;;6155421;23;20121;-94
2021/12/18 00:03:48;;;;;;;23.73;2.10;;;11.60;99.90;;;;;;6155552;23;20024;-93
2021/12/18 00:06:14;;;;;;;25.77;1.30;;;9.20;99.90;;;;;;6154812;23;20320;-93
2021/12/18 00:08:44;;;;;;;10.90;1.10;;;7.80;99.90;;;;;;6155016;23;20031;-93
2021/12/18 00:11:10;;;;;;;25.23;1.77;;;9.00;99.90;;;;;;6154877;23;20021;-93
2021/12/18 00:13:41;;;;;;;60.42;3.22;;;11.40;99.90;;;;;;6155492;23;20017;-93
2021/12/18 00:16:08;;;;;;;26.70;2.03;;;6.80;99.90;;;;;;6155481;23;20047;-93
2021/12/18 00:18:35;;;;;;;33.05;2.22;;;8.90;99.90;;;;;;6154523;23;20021;-92
2021/12/18 00:21:02;;;;;;;42.28;2.97;;;11.00;99.90;;;;;;6154679;23;20078;-92
2021/12/18 00:23:28;;;;;;;25.08;2.45;;;9.40;99.90;;;;;;6154678;23;20013;-93
2021/12/18 00:25:54;;;;;;;19.90;2.22;;;8.80;99.90;;;;;;6154475;23;20094;-93
2021/12/18 00:28:22;;;;;;;16.67;1.70;;;10.10;99.90;;;;;;6155038;23;20041;-92
2021/12/18 00:30:49;;;;;;;22.15;1.58;;;7.70;99.90;;;;;;6155482;23;20381;-93
2021/12/18 00:33:14;;;;;;;28.40;1.60;;;10.10;99.90;;;;;;6155061;23;20017;-93
2021/12/18 00:35:40;;;;;;;16.60;1.50;;;10.00;99.90;;;;;;6153243;23;20451;-94
2021/12/18 00:38:08;;;;;;;11.38;1.00;;;10.10;99.90;;;;;;6155097;23;20020;-92
2021/12/18 00:40:46;;;;;;;9.15;0.80;;;9.20;99.90;;;;;;6155275;23;20013;-93
2021/12/18 00:43:29;;;;;;;5.18;0.88;;;9.40;99.90;;;;;;6154572;23;20442;-93
2021/12/18 00:45:55;;;;;;;15.85;0.80;;;7.80;99.90;;;;;;6155462;23;20046;-93
2021/12/18 00:48:21;;;;;;;11.05;0.60;;;9.00;99.90;;;;;;6154833;23;20017;-92
2021/12/18 00:50:48;;;;;;;4.90;0.85;;;8.40;99.90;;;;;;6155149;23;20017;-93
2021/12/18 00:53:14;;;;;;;8.18;1.02;;;8.90;99.90;;;;;;6154816;23;20021;-92
2021/12/18 00:55:43;;;;;;;10.63;1.42;;;10.30;99.90;;;;;;6155039;23;20304;-92
2021/12/18 00:58:10;;;;;;;10.70;0.80;;;9.10;99.90;;;;;;6154497;23;20129;-93
2021/12/18 01:00:38;;;;;;;6.53;0.77;;;7.80;99.90;;;;;;6155147;23;20455;-93
2021/12/18 01:03:14;;;;;;;8.70;0.82;;;10.70;99.90;;;;;;6155027;23;20390;-93
2021/12/18 01:05:46;;;;;;;29.65;1.00;;;9.20;99.90;;;;;;6155427;23;20020;-93
2021/12/18 01:08:14;;;;;;;13.95;0.90;;;9.20;99.90;;;;;;6154504;23;20447;-93
2021/12/18 01:13:28;;;;;;;17.08;1.10;;;9.20;99.90;;;;;;6204849;23;20028;-92
2021/12/18 01:16:05;;;;;;;15.52;1.25;;;9.60;99.90;;;;;;6154709;23;20032;-92
2021/12/18 01:24:06;;;;;;;13.25;1.00;;;8.20;99.90;;;;;;6204590;23;20447;-92
2021/12/18 01:26:35;;;;;;;20.98;1.05;;;7.70;99.90;;;;;;6154559;23;20180;-93
2021/12/18 01:29:03;;;;;;;24.08;1.50;;;5.90;99.90;;;;;;6153653;23;20017;-93
2021/12/18 01:31:29;;;;;;;12.60;2.10;;;10.00;99.90;;;;;;6154527;23;20096;-92
2021/12/18 01:33:55;;;;;;;21.00;1.15;;;9.30;99.90;;;;;;6154325;23;20071;-92
2021/12/18 01:36:21;;;;;;;15.50;0.98;;;8.10;99.90;;;;;;6154350;23;20059;-91
2021/12/18 01:38:47;;;;;;;101.65;3.60;;;10.40;99.90;;;;;;6154543;23;20068;-92
2021/12/18 01:41:17;;;;;;;120.93;4.30;;;9.40;99.90;;;;;;6154411;23;20500;-92
2021/12/18 01:44:34;;;;;;;148.02;5.70;;;5.90;99.90;;;;;;6154812;23;20091;-92
2021/12/18 01:46:47;;;;;;;156.07;7.35;;;9.30;99.90;;;;;;6178057;23;20296;-92
2021/12/18 01:52:17;;;;;;;251.85;8.07;;;10.80;99.90;;;;;;6160002;23;20021;-92
2021/12/18 01:54:45;;;;;;;232.80;8.43;;;9.20;99.90;;;;;;6157544;23;20017;-93
2021/12/18 01:57:11;;;;;;;111.63;5.13;;;9.30;99.90;;;;;;6157861;23;20017;-93
2021/12/18 01:59:42;;;;;;;73.18;4.53;;;8.70;99.90;;;;;;6157897;23;20032;-92
2021/12/18 02:02:08;;;;;;;154.20;6.63;;;9.00;99.90;;;;;;6157789;23;20339;-92
2021/12/18 02:04:34;;;;;;;79.00;5.32;;;9.00;99.90;;;;;;6157862;23;20028;-93
2021/12/18 02:07:01;;;;;;;48.65;3.28;;;9.20;99.90;;;;;;6157962;23;20473;-93
2021/12/18 02:09:40;;;;;;;72.65;4.18;;;9.10;99.90;;;;;;6157905;23;20024;-92
2021/12/18 02:12:06;;;;;;;53.35;4.53;;;8.70;99.90;;;;;;6157930;23;20024;-92
2021/12/18 02:19:32;;;;;;;49.83;3.38;;;9.40;99.90;;;;;;6157604;23;20086;-92
2021/12/18 02:20:24;;;;;;;10.85;2.10;;;9.00;99.90;;;;;;6182412;22;19991;-93
2021/12/18 02:22:52;;;;;;;12.40;2.15;;;9.80;99.90;;;;;;6157946;23;20320;-93
2021/12/18 02:25:19;;;;;;;11.90;2.00;;;11.50;99.90;;;;;;6157071;23;20512;-94
2021/12/18 02:27:48;;;;;;;15.93;2.13;;;7.40;99.90;;;;;;6157586;23;20049;-92
2021/12/18 02:30:14;;;;;;;18.88;1.63;;;8.60;99.90;;;;;;6157216;23;20024;-93
2021/12/18 02:32:39;;;;;;;15.48;1.88;;;9.20;99.90;;;;;;6157176;23;20017;-94
2021/12/18 02:35:06;;;;;;;10.25;1.30;;;11.20;99.90;;;;;;6153951;23;20339;-92
2021/12/18 02:37:39;;;;;;;23.95;1.95;;;7.50;99.90;;;;;;6156382;23;20024;-93
2021/12/18 02:42:35;;;;;;;23.30;2.40;;;7.80;99.90;;;;;;6207209;23;20021;-92
2021/12/18 02:45:02;;;;;;;20.88;2.08;;;9.00;99.90;;;;;;6157352;23;20021;-92
2021/12/18 02:47:28;;;;;;;11.68;2.80;;;10.50;99.90;;;;;;6157411;23;20017;-92
2021/12/18 02:49:57;;;;;;;15.25;2.58;;;11.40;99.90;;;;;;6157294;23;20328;-93
2021/12/18 02:52:28;;;;;;;28.08;3.75;;;9.90;99.90;;;;;;6157401;23;20021;-92
2021/12/18 02:54:54;;;;;;;29.48;3.80;;;9.90;99.90;;;;;;6157536;23;20096;-92
2021/12/18 02:57:20;;;;;;;14.23;3.00;;;10.80;99.90;;;;;;6157265;23;20045;-92
2021/12/18 02:59:48;;;;;;;13.90;2.65;;;10.80;99.90;;;;;;6157000;23;20025;-92
2021/12/18 03:02:16;;;;;;;15.07;2.78;;;7.90;99.90;;;;;;6156871;23;20403;-92
2021/12/18 03:04:50;;;;;;;7.53;2.72;;;11.90;99.90;;;;;;6156059;23;20078;-92
2021/12/18 03:07:18;;;;;;;16.02;3.00;;;9.90;99.90;;;;;;6155706;23;20347;-93
2021/12/18 03:23:31;;;;;;;27.35;3.75;;;7.30;99.90;;;;;;6204899;23;20028;-92
2021/12/18 03:25:59;;;;;;;26.67;3.83;;;8.90;99.90;;;;;;6155485;23;20017;-92
2021/12/18 03:28:26;;;;;;;33.03;4.28;;;10.50;99.90;;;;;;6155425;23;20043;-93
2021/12/18 03:30:51;;;;;;;40.47;4.55;;;9.50;99.90;;;;;;6155463;23;20021;-93
2021/12/18 03:33:17;;;;;;;50.95;5.65;;;10.00;99.90;;;;;;6155059;23;20401;-92
2021/12/18 03:35:44;;;;;;;30.42;5.30;;;7.80;99.90;;;;;;6154858;23;20028;-92
2021/12/18 03:38:10;;;;;;;46.03;5.80;;;9.80;99.90;;;;;;6155173;23;20017;-93
2021/12/18 03:40:36;;;;;;;20.33;3.40;;;9.40;99.90;;;;;;6155482;23;20028;-92
2021/12/18 03:43:02;;;;;;;14.95;2.83;;;7.90;99.90;;;;;;6154985;23;20017;-92
2021/12/18 03:45:29;;;;;;;28.23;4.28;;;11.50;99.90;;;;;;6153949;23;20171;-92
2021/12/18 03:47:55;;;;;;;24.13;4.65;;;8.00;99.90;;;;;;6154767;23;20023;-92
2021/12/18 03:50:21;;;;;;;13.27;3.42;;;9.30;99.90;;;;;;6155022;23;20024;-92
2021/12/18 03:52:48;;;;;;;23.23;3.33;;;10.30;99.90;;;;;;6154839;23;20117;-92
2021/12/18 03:55:14;;;;;;;17.48;3.25;;;9.10;99.90;;;;;;6154763;23;20463;-93
2021/12/18 03:57:40;;;;;;;44.08;3.58;;;8.10;99.90;;;;;;6154936;23;20017;-92
2021/12/18 04:00:08;;;;;;;34.47;3.13;;;9.80;99.90;;;;;;6154881;23;20024;-92
2021/12/18 04:02:33;;;;;;;21.73;2.67;;;8.60;99.90;;;;;;6180064;23;20013;-92
2021/12/18 04:04:59;;;;;;;16.10;2.65;;;11.00;99.90;;;;;;6154755;23;20070;-92
2021/12/18 04:07:25;;;;;;;10.10;2.05;;;12.10;99.90;;;;;;6155008;23;20576;-91
2021/12/18 04:09:51;;;;;;;11.88;2.25;;;8.90;99.90;;;;;;6154678;23;20052;-92
2021/12/18 04:12:16;;;;;;;12.40;3.47;;;7.50;99.90;;;;;;6154606;23;20017;-92
2021/12/18 04:14:43;;;;;;;15.63;4.07;;;9.50;99.90;;;;;;6155394;23;20446;-92
2021/12/18 04:17:08;;;;;;;8.07;3.30;;;10.00;99.90;;;;;;6154559;23;20343;-92
2021/12/18 04:19:34;;;;;;;8.05;3.25;;;8.10;99.90;;;;;;6155271;23;20049;-92
2021/12/18 04:22:00;;;;;;;10.25;3.33;;;10.20;99.90;;;;;;6154581;23;20024;-92
2021/12/18 04:24:26;;;;;;;11.32;3.25;;;10.20;99.90;;;;;;6154486;23;20021;-92
2021/12/18 04:26:52;;;;;;;14.07;3.63;;;9.30;99.90;;;;;;6154982;23;20017;-92
2021/12/18 04:29:17;;;;;;;32.70;5.28;;;11.40;99.90;;;;;;6155069;23;20316;-91
2021/12/18 04:31:43;;;;;;;33.38;4.78;;;7.70;99.90;;;;;;6154677;23;20013;-91
2021/12/18 04:34:09;;;;;;;35.80;5.03;;;7.60;99.90;;;;;;6154638;23;20057;-91
2021/12/18 04:36:35;;;;;;;8.57;3.25;;;10.30;99.90;;;;;;6153156;23;20121;-92
2021/12/18 04:39:02;;;;;;;8.85;2.30;;;10.90;99.90;;;;;;6155005;23;20028;-92
2021/12/18 04:41:39;;;;;;;4.28;2.17;;;9.60;99.90;;;;;;6154929;23;20017;-91
2021/12/18 04:44:05;;;;;;;8.98;2.90;;;8.70;99.90;;;;;;6154406;23;20459;-92
2021/12/18 04:46:32;;;;;;;12.27;3.63;;;10.30;99.90;;;;;;6154821;23;20013;-92
2021/12/18 04:48:57;;;;;;;25.17;4.13;;;10.30;99.90;;;;;;6154574;23;20028;-91
2021/12/18 04:51:23;;;;;;;15.00;4.22;;;12.00;99.90;;;;;;6154472;23;20017;-92
2021/12/18 04:53:49;;;;;;;21.10;4.80;;;10.80;99.90;;;;;;6154059;23;20014;-92
2021/12/18 04:56:14;;;;;;;22.52;4.30;;;9.30;99.90;;;;;;6154196;23;20082;-92
2021/12/18 04:58:40;;;;;;;17.27;4.43;;;9.00;99.90;;;;;;6154691;23;20439;-92
2021/12/18 05:01:06;;;;;;;34.72;4.80;;;7.70;99.90;;;;;;6178968;23;20021;-92
2021/12/18 05:03:32;;;;;;;26.15;4.80;;;12.00;99.90;;;;;;6154439;23;20347;-91
2021/12/18 05:06:00;;;;;;;29.00;5.07;;;10.40;99.90;;;;;;6154291;23;20098;-92
2021/12/18 05:08:26;;;;;;;45.65;5.63;;;10.30;99.90;;;;;;6154354;23;20013;-92
2021/12/18 05:10:52;;;;;;;35.88;4.97;;;11.90;99.90;;;;;;6154654;23;20032;-92
2021/12/18 05:13:18;;;;;;;41.58;5.43;;;8.80;99.90;;;;;;6154017;23;20096;-91
2021/12/18 05:15:43;;;;;;;44.55;5.30;;;8.00;99.90;;;;;;6154791;23;20049;-91
2021/12/18 05:18:09;;;;;;;45.45;5.28;;;10.70;99.90;;;;;;6154078;23;20017;-91
2021/12/18 05:20:35;;;;;;;31.75;5.00;;;11.40;99.90;;;;;;6154367;23;20013;-92
2021/12/18 05:23:00;;;;;;;47.47;4.90;;;8.90;99.90;;;;;;6154656;23;20020;-91
2021/12/18 05:25:26;;;;;;;60.08;5.43;;;9.10;99.90;;;;;;6178808;23;20454;-91
2021/12/18 05:27:52;;;;;;;129.85;9.38;;;9.40;99.90;;;;;;6154217;23;20032;-92
2021/12/18 05:30:18;;;;;;;74.20;5.10;;;7.70;99.90;;;;;;6154310;23;20025;-93
2021/12/18 05:32:44;;;;;;;63.00;5.88;;;8.80;99.90;;;;;;6155144;23;20027;-93
2021/12/18 05:35:15;;;;;;;32.75;4.00;;;12.40;99.90;;;;;;6154258;23;20048;-92
2021/12/18 05:37:47;;;;;;;48.80;4.93;;;8.90;99.90;;;;;;6254317;22;20106;-92
2021/12/18 05:40:15;;;;;;;24.52;4.00;;;9.50;99.90;;;;;;6254147;22;20015;-92
2021/12/18 05:42:41;;;;;;;29.15;3.35;;;10.10;99.90;;;;;;6254395;22;20030;-93
2021/12/18 05:45:08;;;;;;;31.10;2.97;;;9.20;99.90;;;;;;6271697;22;20015;-93
2021/12/18 05:47:34;;;;;;;18.25;1.80;;;10.40;99.90;;;;;;6253810;22;20016;-92
2021/12/18 05:50:00;;;;;;;12.48;1.85;;;7.50;99.90;;;;;;6254137;22;20012;-92
2021/12/18 05:52:26;;;;;;;25.77;1.77;;;9.90;99.90;;;;;;6279612;22;20484;-92
2021/12/18 05:54:52;;;;;;;9.75;1.52;;;10.30;99.90;;;;;;6279493;22;20116;-91
2021/12/18 05:57:18;;;;;;;17.35;1.73;;;10.50;99.90;;;;;;6278726;22;20319;-91
2021/12/18 05:59:44;;;;;;;18.50;2.20;;;12.50;99.90;;;;;;6253800;22;20016;-91
2021/12/18 06:02:10;;;;;;;22.88;2.42;;;9.20;99.90;;;;;;6278795;22;20117;-91
2021/12/18 06:04:36;;;;;;;29.33;2.50;;;11.10;99.90;;;;;;6253069;22;20077;-91
2021/12/18 06:07:05;;;;;;;26.45;2.70;;;10.20;99.90;;;;;;6279027;22;20020;-92
2021/12/18 06:09:35;;;;;;;27.33;2.55;;;7.60;99.90;;;;;;6253332;22;20080;-90
2021/12/18 06:12:02;;;;;;;32.35;2.38;;;7.50;99.90;;;;;;6253610;22;20049;-91
2021/12/18 06:14:29;;;;;;;26.58;2.50;;;9.10;99.90;;;;;;6253259;22;20042;-91
2021/12/18 06:16:55;;;;;;;51.40;3.67;;;11.10;99.90;;;;;;6253762;22;20759;-92
2021/12/18 06:19:21;;;;;;;53.70;3.22;;;10.80;99.90;;;;;;6278958;22;20012;-91
2021/12/18 06:21:47;;;;;;;52.65;3.88;;;9.80;99.90;;;;;;6278945;22;20086;-92
2021/12/18 06:24:13;;;;;;;47.75;3.58;;;9.80;99.90;;;;;;6279170;22;20012;-91
2021/12/18 06:26:39;;;;;;;41.50;3.78;;;7.50;99.90;;;;;;6278803;22;20026;-91
2021/12/18 06:29:04;;;;;;;30.30;3.53;;;8.00;99.90;;;;;;6279106;22;20074;-91
2021/12/18 06:31:33;;;;;;;45.40;4.68;;;8.80;99.90;;;;;;6253632;22;20019;-91
2021/12/18 06:33:59;;;;;;;31.45;4.90;;;9.70;99.90;;;;;;6253959;22;20045;-91
2021/12/18 06:36:25;;;;;;;38.95;5.40;;;10.60;99.90;;;;;;6197299;23;20029;-91
2021/12/18 06:38:51;;;;;;;45.85;5.53;;;7.80;99.90;;;;;;6153907;23;20024;-92
2021/12/18 06:41:16;;;;;;;55.08;6.45;;;8.70;99.90;;;;;;6154506;23;20017;-91
2021/12/18 06:43:42;;;;;;;39.28;5.07;;;10.50;99.90;;;;;;6179663;23;20469;-91
2021/12/18 06:46:08;;;;;;;56.45;6.03;;;12.60;99.90;;;;;;6154734;23;20009;-91
2021/12/18 06:48:34;;;;;;;36.33;5.05;;;10.40;99.90;;;;;;6154062;23;20088;-91
2021/12/18 06:51:01;;;;;;;22.67;3.92;;;9.40;99.90;;;;;;6154754;23;20047;-92
2021/12/18 06:53:26;;;;;;;24.67;3.72;;;12.20;99.90;;;;;;6154384;23;20100;-92
2021/12/18 06:55:52;;;;;;;26.27;3.15;;;10.70;99.90;;;;;;6155374;23;20041;-92
2021/12/18 06:58:18;;;;;;;16.05;3.08;;;7.90;99.90;;;;;;6154345;23;20021;-92
2021/12/18 07:00:43;;;;;;;28.70;3.80;;;10.80;99.90;;;;;;6154640;23;20013;-91
2021/12/18 07:03:09;;;;;;;28.67;3.65;;;8.40;99.90;;;;;;6154802;23;20351;-92
2021/12/18 07:05:35;;;;;;;67.10;4.68;;;8.60;99.90;;;;;;6155157;23;20020;-92
2021/12/18 07:08:01;;;;;;;21.08;3.55;;;6.60;99.90;;;;;;6155067;23;20020;-92
2021/12/18 07:10:26;;;;;;;28.25;4.07;;;7.70;99.90;;;;;;6154469;23;20112;-91
2021/12/18 07:12:52;;;;;;;34.20;4.25;;;10.40;99.90;;;;;;6154375;23;20020;-93
2021/12/18 07:15:18;;;;;;;38.88;4.60;;;10.60;99.90;;;;;;6154359;23;20017;-92
2021/12/18 07:17:49;;;;;;;30.42;4.10;;;10.40;99.90;;;;;;6154991;23;20024;-91
2021/12/18 07:20:15;;;;;;;36.65;3.72;;;9.40;99.90;;;;;;6154680;23;20024;-92
2021/12/18 07:22:41;;;;;;;19.77;3.92;;;10.90;99.90;;;;;;6155083;23;20416;-92
2021/12/18 07:25:07;;;;;;;25.75;4.20;;;12.40;99.90;;;;;;6155138;23;20108;-92
2021/12/18 07:27:35;;;;;;;23.92;4.35;;;8.90;99.90;;;;;;6154945;23;20021;-92
2021/12/18 07:30:03;;;;;;;18.40;3.85;;;7.70;99.90;;;;;;6155325;23;20439;-92
2021/12/18 07:32:29;;;;;;;27.38;4.50;;;10.70;99.90;;;;;;6154462;23;20065;-92
2021/12/18 07:34:57;;;;;;;21.27;4.30;;;10.70;99.90;;;;;;6154933;23;20048;-91
2021/12/18 07:37:24;;;;;;;33.08;5.55;;;8.10;99.90;;;;;;6154287;23;20024;-92
2021/12/18 07:39:51;;;;;;;25.52;4.93;;;8.30;99.90;;;;;;6154651;23;20455;-92
2021/12/18 07:42:17;;;;;;;26.05;5.95;;;10.50;99.90;;;;;;6155024;23;20024;-92
2021/12/18 07:44:43;;;;;;;19.00;5.78;;;7.90;99.90;;;;;;6154488;23;20096;-92
2021/12/18 07:47:08;;;;;;;22.88;6.35;;;9.10;99.90;;;;;;6179816;23;20354;-92
2021/12/18 07:49:34;;;;;;;18.60;5.50;;;11.20;99.90;;;;;;6179548;23;20021;-92
2021/12/18 07:52:03;;;;;;;24.88;5.85;;;7.80;99.90;;;;;;6155005;23;20089;-92
2021/12/18 07:54:29;;;;;;;22.38;5.72;;;8.50;99.90;;;;;;6153181;23;20009;-92
2021/12/18 07:56:58;;;;;;;15.38;5.20;;;8.20;99.90;;;;;;6155483;23;20032;-93
2021/12/18 07:59:23;;;;;;;18.75;5.82;;;7.90;99.90;;;;;;6155564;23;20434;-93
2021/12/18 08:01:49;;;;;;;23.52;5.30;;;11.30;99.90;;;;;;6155405;23;20013;-93
2021/12/18 08:04:15;;;;;;;22.17;5.45;;;10.90;99.90;;;;;;6155103;23;20028;-91
2021/12/18 08:06:40;;;;;;;23.67;5.60;;;9.30;99.90;;;;;;6154569;23;20017;-91
2021/12/18 08:09:06;;;;;;;18.08;5.32;;;8.40;99.90;;;;;;6154747;23;20096;-91
2021/12/18 08:11:32;;;;;;;21.80;5.43;;;9.30;99.90;;;;;;6154562;23;20013;-92
2021/12/18 08:13:58;;;;;;;22.88;5.63;;;11.10;99.90;;;;;;6155036;23;20025;-92
2021/12/18 08:16:23;;;;;;;24.83;5.43;;;12.20;99.90;;;;;;6154426;23;20014;-91
2021/12/18 08:18:49;;;;;;;23.95;5.22;;;10.40;99.90;;;;;;6155471;23;20017;-92
2021/12/18 08:21:15;;;;;;;23.17;6.05;;;10.10;99.90;;;;;;6153593;23;20032;-92
2021/12/18 08:23:41;;;;;;;28.52;6.55;;;8.50;99.90;;;;;;6154244;23;20107;-91
2021/12/18 08:26:07;;;;;;;26.65;6.68;;;12.10;99.90;;;;;;6154420;23;20356;-92
2021/12/18 08:28:33;;;;;;;29.20;7.00;;;7.90;99.90;;;;;;6154022;23;20024;-93
2021/12/18 08:30:59;;;;;;;27.10;6.85;;;7.50;99.90;;;;;;6154746;23;20047;-91
2021/12/18 08:33:26;;;;;;;26.25;7.22;;;12.40;99.90;;;;;;6154016;23;20013;-91
2021/12/18 08:35:52;;;;;;;21.65;7.18;;;10.90;99.90;;;;;;6153863;23;20020;-91
2021/12/18 08:38:18;;;;;;;16.40;6.70;;;12.90;99.90;;;;;;6154111;23;20082;-90
2021/12/18 08:40:45;;;;;;;19.10;7.28;;;13.00;99.90;;;;;;6154815;23;20013;-91
2021/12/18 08:43:11;;;;;;;22.17;6.82;;;10.20;99.90;;;;;;6154705;23;20069;-90
2021/12/18 08:45:37;;;;;;;18.45;5.75;;;13.10;99.90;;;;;;6154405;23;20052;-90
2021/12/18 08:48:03;;;;;;;13.35;6.05;;;8.50;99.90;;;;;;6179158;23;20017;-90
2021/12/18 08:50:30;;;;;;;16.10;5.45;;;11.00;99.90;;;;;;6179253;23;20067;-91
2021/12/18 08:52:55;;;;;;;12.75;5.20;;;13.20;99.90;;;;;;6154362;23;20017;-90
2021/12/18 08:55:22;;;;;;;8.52;4.10;;;11.10;99.90;;;;;;6154500;23;20027;-90
2021/12/18 08:57:49;;;;;;;14.23;4.95;;;10.70;99.90;;;;;;6154586;23;20021;-89
2021/12/18 09:00:17;;;;;;;12.70;3.78;;;8.80;99.90;;;;;;6179200;23;20024;-91
2021/12/18 09:02:46;;;;;;;14.68;3.95;;;8.10;99.90;;;;;;6178111;23;20074;-91
2021/12/18 09:05:12;;;;;;;5.45;2.80;;;8.90;99.90;;;;;;6154497;23;20029;-91
2021/12/18 09:07:38;;;;;;;7.13;2.50;;;8.60;99.90;;;;;;6153938;23;20020;-92
2021/12/18 09:10:05;;;;;;;12.73;3.40;;;9.80;99.90;;;;;;6154332;23;20051;-92
2021/12/18 09:12:31;;;;;;;8.65;3.08;;;10.80;99.90;;;;;;6153873;23;20051;-91
2021/12/18 09:14:57;;;;;;;10.63;4.00;;;10.90;99.90;;;;;;6154830;23;20021;-90
2021/12/18 09:17:23;;;;;;;10.77;4.22;;;11.20;99.90;;;;;;6153964;23;20013;-90
2021/12/18 09:19:50;;;;;;;12.32;3.90;;;8.50;99.90;;;;;;6179468;23;20352;-91
2021/12/18 09:22:16;;;;;;;17.25;4.85;;;11.50;99.90;;;;;;6154294;23;20417;-92
2021/12/18 09:24:42;;;;;;;8.32;3.85;;;9.80;99.90;;;;;;6154224;23;20017;-91
2021/12/18 09:27:08;;;;;;;15.27;4.70;;;8.60;99.90;;;;;;6154184;23;20049;-90
2021/12/18 09:29:34;;;;;;;10.35;3.95;;;9.30;99.90;;;;;;6152412;23;20332;-92
2021/12/18 09:32:00;;;;;;;16.73;4.15;;;13.50;99.90;;;;;;6154153;23;20024;-91
2021/12/18 09:34:28;;;;;;;16.50;5.05;;;11.40;99.90;;;;;;6153799;23;20092;-92
2021/12/18 09:36:54;;;;;;;12.52;4.45;;;12.40;99.90;;;;;;6154321;23;20013;-91
2021/12/18 09:39:19;;;;;;;16.77;4.70;;;11.30;99.90;;;;;;6153867;23;20351;-89
2021/12/18 09:41:50;;;;;;;10.40;4.30;;;8.90;99.90;;;;;;6179057;23;20058;-85
2021/12/18 09:44:25;;;;;;;14.18;5.18;;;13.60;99.90;;;;;;6178920;23;20098;-90
2021/12/18 09:46:52;;;;;;;10.38;4.32;;;11.00;99.90;;;;;;6178698;23;20017;-90
2021/12/18 09:49:18;;;;;;;12.95;4.78;;;10.80;99.90;;;;;;6153855;23;20085;-90
2021/12/18 09:51:45;;;;;;;12.02;4.82;;;13.00;99.90;;;;;;6154015;23;20388;-91
2021/12/18 09:54:11;;;;;;;6.90;3.55;;;10.20;99.90;;;;;;6153993;23;20017;-91
2021/12/18 09:56:38;;;;;;;9.48;3.58;;;10.80;99.90;;;;;;6154170;23;20017;-92
2021/12/18 09:59:04;;;;;;;10.20;3.63;;;11.40;99.90;;;;;;6153878;23;20283;-89
2021/12/18 10:01:31;;;;;;;16.48;4.57;;;9.10;99.90;;;;;;6178119;23;20017;-91
2021/12/18 10:03:59;;;;;;;15.20;4.72;;;12.30;99.90;;;;;;6178963;23;20091;-92
2021/12/18 10:06:39;;;;;;;20.38;5.55;;;8.90;99.90;;;;;;6153830;23;20021;-90
2021/12/18 10:09:10;;;;;;;19.15;4.95;;;11.50;99.90;;;;;;6153998;23;20021;-91
2021/12/18 10:11:47;;;;;;;15.48;4.45;;;9.20;99.90;;;;;;6153697;23;20301;-91
2021/12/18 10:14:14;;;;;;;16.98;4.80;;;8.80;99.90;;;;;;6154820;23;20013;-91
2021/12/18 10:16:44;;;;;;;25.08;4.82;;;11.40;99.90;;;;;;6155160;23;20095;-91
2021/12/18 10:19:31;;;;;;;19.40;5.15;;;8.70;99.90;;;;;;6155401;23;20339;-91
2021/12/18 10:22:00;;;;;;;21.80;4.32;;;8.90;99.90;;;;;;6155926;23;20535;-91
2021/12/18 10:24:27;;;;;;;17.15;4.35;;;11.50;99.90;;;;;;6179226;23;20056;-91
2021/12/18 10:26:53;;;;;;;11.60;3.50;;;10.60;99.90;;;;;;6179837;23;20024;-91
2021/12/18 10:29:28;;;;;;;17.95;4.30;;;9.70;99.90;;;;;;6154654;23;20070;-91
2021/12/18 10:31:54;;;;;;;16.58;3.50;;;11.80;99.90;;;;;;6154845;23;20086;-91
2021/12/18 10:34:24;;;;;;;13.43;3.92;;;9.10;99.90;;;;;;6154787;23;20586;-89
2021/12/18 10:37:08;;;;;;;15.63;4.55;;;7.80;99.90;;;;;;6150692;23;20021;-91
2021/12/18 10:39:39;;;;;;;11.50;3.70;;;12.80;99.90;;;;;;6179106;22;20463;-90
2021/12/18 10:42:18;;;;;;;13.50;3.45;;;10.00;99.90;;;;;;6154540;23;20512;-90
2021/12/18 10:44:59;;;;;;;13.18;3.90;;;10.50;99.90;;;;;;6154867;23;20048;-91
2021/12/18 10:47:25;;;;;;;15.23;4.03;;;9.60;99.90;;;;;;6154679;23;20020;-90
2021/12/18 10:49:51;;;;;;;14.32;3.80;;;10.20;99.90;;;;;;6155376;23;20009;-90
2021/12/18 10:52:17;;;;;;;15.43;3.08;;;13.00;99.90;;;;;;6154788;23;20018;-90
2021/12/18 10:54:43;;;;;;;13.40;3.50;;;9.00;99.90;;;;;;6155830;23;20020;-90
2021/12/18 10:57:20;;;;;;;16.23;3.47;;;11.40;99.90;;;;;;6155175;23;20013;-90
2021/12/18 10:59:48;;;;;;;17.48;3.38;;;9.00;99.90;;;;;;6154888;23;20117;-90
2021/12/18 11:02:19;;;;;;;16.58;3.47;;;12.80;99.90;;;;;;6155356;23;20350;-90
2021/12/18 11:04:44;;;;;;;12.43;3.38;;;9.00;99.90;;;;;;6154686;23;20017;-90
2021/12/18 11:07:18;;;;;;;15.68;3.22;;;11.60;99.90;;;;;;6154949;23;20078;-90
2021/12/18 11:09:59;;;;;;;11.55;3.67;;;8.90;99.90;;;;;;6179020;23;20028;-89
2021/12/18 11:15:10;;;;;;;8.63;3.70;;;11.50;99.90;;;;;;6205125;23;20021;-88
2021/12/18 11:17:36;;;;;;;12.27;4.15;;;9.10;99.90;;;;;;6154440;23;20009;-91
2021/12/18 11:20:03;;;;;;;11.05;4.82;;;9.10;99.90;;;;;;6155548;23;20024;-92
2021/12/18 11:22:29;;;;;;;14.57;4.72;;;12.00;99.90;;;;;;6154740;23;20066;-85
2021/12/18 11:25:05;;;;;;;9.70;4.30;;;9.20;99.90;;;;;;6181284;23;20342;-92
2021/12/18 11:27:33;;;;;;;20.40;4.07;;;9.30;99.90;;;;;;6154975;23;20013;-93
2021/12/18 11:30:10;;;;;;;14.75;4.15;;;10.90;99.90;;;;;;6155104;23;20064;-92
2021/12/18 11:32:40;;;;;;;11.80;3.95;;;11.80;99.90;;;;;;6155168;23;20017;-93
2021/12/18 11:35:10;;;;;;;11.90;3.47;;;11.60;99.90;;;;;;6155590;23;20021;-93
2021/12/18 11:37:49;;;;;;;13.02;3.60;;;10.70;99.90;;;;;;6152980;23;20020;-92
2021/12/18 11:40:20;;;;;;;11.57;3.60;;;12.50;99.90;;;;;;6155066;23;20052;-93
2021/12/18 11:42:45;;;;;;;9.88;3.33;;;10.30;99.90;;;;;;6155144;23;20092;-93
2021/12/18 11:45:11;;;;;;;12.00;2.83;;;9.40;99.90;;;;;;6179817;23;20024;-93
2021/12/18 11:47:39;;;;;;;14.60;3.60;;;9.90;99.90;;;;;;6153923;23;20021;-93
2021/12/18 11:50:06;;;;;;;11.95;3.60;;;10.40;99.90;;;;;;6155300;23;20089;-92
2021/12/18 11:52:58;;;;;;;9.00;3.60;;;11.90;99.90;;;;;;6154883;23;20052;-92
2021/12/18 11:55:27;;;;;;;9.80;4.05;;;9.50;99.90;;;;;;6155399;23;20503;-92
2021/12/18 11:57:58;;;;;;;9.25;3.30;;;13.70;99.90;;;;;;6155756;23;20021;-93
2021/12/18 12:00:32;;;;;;;13.75;3.72;;;10.50;99.90;;;;;;6155704;23;20048;-93
2021/12/18 12:03:00;;;;;;;13.45;3.45;;;11.20;99.90;;;;;;6155617;23;20028;-93
2021/12/18 12:05:37;;;;;;;13.65;3.58;;;10.50;99.90;;;;;;6155524;23;20060;-93
2021/12/18 12:08:25;;;;;;;11.18;3.60;;;13.10;99.90;;;;;;6155642;23;20017;-93
2021/12/18 12:11:15;;;;;;;8.48;3.83;;;11.60;99.90;;;;;;6155013;23;20108;-92
2021/12/18 12:13:57;;;;;;;16.20;4.22;;;11.60;99.90;;;;;;6155053;23;20079;-92
2021/12/18 12:16:47;;;;;;;16.13;4.20;;;10.20;99.90;;;;;;6154928;23;20463;-92
2021/12/18 12:19:15;;;;;;;14.02;4.47;;;7.70;99.90;;;;;;6154915;23;20082;-93
2021/12/18 12:21:44;;;;;;;11.18;4.07;;;12.20;99.90;;;;;;6154744;23;20025;-92
2021/12/18 12:24:11;;;;;;;12.23;4.20;;;11.80;99.90;;;;;;6155294;23;20036;-93
2021/12/18 12:26:37;;;;;;;17.65;5.15;;;9.00;99.90;;;;;;6154073;23;20013;-92
2021/12/18 12:29:06;;;;;;;19.35;4.55;;;11.80;99.90;;;;;;6154705;23;20028;-92
2021/12/18 12:31:32;;;;;;;16.00;4.43;;;9.40;99.90;;;;;;6154937;23;20027;-92
2021/12/18 12:34:20;;;;;;;13.55;4.13;;;11.10;99.90;;;;;;6155020;23;20025;-92
2021/12/18 12:36:46;;;;;;;10.88;3.83;;;11.00;99.90;;;;;;6154228;23;20355;-92
2021/12/18 12:39:14;;;;;;;10.50;4.03;;;9.10;99.90;;;;;;6154784;23;20032;-92
2021/12/18 12:41:43;;;;;;;14.82;5.05;;;10.60;99.90;;;;;;6154973;23;20328;-92
2021/12/18 12:44:36;;;;;;;12.73;5.03;;;10.40;99.90;;;;;;6154852;23;20166;-93
2021/12/18 12:47:15;;;;;;;17.48;5.07;;;11.00;99.90;;;;;;6155321;23;20017;-92
2021/12/18 12:49:43;;;;;;;16.02;5.63;;;9.00;99.90;;;;;;6154152;23;20028;-92
2021/12/18 12:52:11;;;;;;;22.52;6.43;;;10.30;99.90;;;;;;6154700;23;20017;-92
2021/12/18 12:54:50;;;;;;;13.20;5.03;;;8.80;99.90;;;;;;6154026;23;20053;-93
2021/12/18 12:57:22;;;;;;;16.08;4.53;;;10.60;99.90;;;;;;6178868;23;20017;-92
2021/12/18 12:59:49;;;;;;;16.27;4.55;;;11.00;99.90;;;;;;6154437;23;20059;-93
2021/12/18 13:02:16;;;;;;;15.85;4.88;;;8.70;99.90;;;;;;6154409;23;20052;-92
2021/12/18 13:04:41;;;;;;;15.75;4.10;;;8.80;99.90;;;;;;6154314;23;20620;-92
2021/12/18 13:07:08;;;;;;;14.57;4.20;;;10.70;99.90;;;;;;6155218;23;20020;-93
2021/12/18 13:09:35;;;;;;;14.57;4.50;;;9.60;99.90;;;;;;6154635;23;20024;-94
2021/12/18 13:12:04;;;;;;;11.23;3.75;;;8.80;99.90;;;;;;6155468;23;20017;-93
2021/12/18 13:14:38;;;;;;;10.23;4.00;;;11.20;99.90;;;;;;6180158;23;20100;-93
2021/12/18 13:17:20;;;;;;;5.70;3.72;;;9.00;99.90;;;;;;6156041;23;20020;-95
2021/12/18 13:19:58;;;;;;;8.18;3.95;;;11.30;99.90;;;;;;6155582;23;20355;-94
2021/12/18 13:22:30;;;;;;;12.15;3.80;;;10.70;99.90;;;;;;6155428;23;20024;-94